createdAt,value
2022-12-20T00:01:30.169Z,99340.72
2022-12-20T00:03:58.895Z,99331.81
2022-12-20T00:06:26.254Z,99335.31
2022-12-20T00:08:55.234Z,99328.72
2022-12-20T00:11:23.093Z,99335.47
2022-12-20T00:13:49.765Z,99331.97
2022-12-20T00:16:19.768Z,99321.56
2022-12-20T00:18:46.717Z,99325.50
2022-12-20T00:21:14.706Z,99320.22
2022-12-20T00:23:42.024Z,99311.19
2022-12-20T00:26:19.819Z,99319.56
2022-12-20T00:28:47.138Z,99328.47
2022-12-20T00:31:16.373Z,99336.19
2022-12-20T00:33:47.038Z,99342.81
2022-12-20T00:36:14.822Z,99332.25
2022-12-20T00:38:41.737Z,99329.56
2022-12-20T00:41:11.190Z,99338.47
2022-12-20T00:43:39.845Z,99341.72
2022-12-20T00:46:09.125Z,99341.03
2022-12-20T00:48:37.065Z,99332.97
2022-12-20T00:51:08.759Z,99328.34
2022-12-20T00:53:36.556Z,99325.78
2022-12-20T00:56:04.512Z,99339.31
2022-12-20T00:58:33.681Z,99324.56
2022-12-20T01:01:00.612Z,99319.19
2022-12-20T01:03:27.899Z,99317.44
2022-12-20T01:06:00.591Z,99305.94
2022-12-20T01:08:29.259Z,99300.78
2022-12-20T01:11:05.115Z,99302.94
2022-12-20T01:13:33.094Z,99310.78
2022-12-20T01:16:17.661Z,99321.06
2022-12-20T01:18:44.789Z,99312.28
2022-12-20T01:21:14.151Z,99305.66
2022-12-20T01:23:41.429Z,99298.09
2022-12-20T01:26:11.860Z,99292.97
2022-12-20T01:28:40.928Z,99295.53
2022-12-20T01:31:09.661Z,99288.38
2022-12-20T01:33:36.854Z,99286.50
2022-12-20T01:36:09.102Z,99297.16
2022-12-20T01:38:35.792Z,99308.91
2022-12-20T01:41:03.912Z,99300.69
2022-12-20T01:43:47.464Z,99303.63
2022-12-20T01:46:14.340Z,99309.44
2022-12-20T01:48:43.897Z,99319.44
2022-12-20T01:51:11.051Z,99312.00
2022-12-20T01:53:40.252Z,99309.56
2022-12-20T01:56:08.602Z,99317.53
2022-12-20T01:58:38.944Z,99318.34
2022-12-20T02:01:05.820Z,99325.34
2022-12-20T02:03:32.752Z,99318.50
2022-12-20T02:06:14.564Z,99312.44
2022-12-20T02:08:41.405Z,99300.78
2022-12-20T02:11:29.449Z,99283.38
2022-12-20T02:14:14.684Z,99288.78
2022-12-20T02:17:22.384Z,99284.84
2022-12-20T02:19:58.077Z,99285.53
2022-12-20T02:22:45.153Z,99270.03
2022-12-20T02:25:36.687Z,99248.66
2022-12-20T02:28:28.029Z,99240.28
2022-12-20T02:30:57.955Z,99263.09
2022-12-20T02:33:28.416Z,99240.16
2022-12-20T02:35:55.087Z,99220.81
2022-12-20T02:38:37.058Z,99198.28
2022-12-20T02:41:20.637Z,99205.16
2022-12-20T02:44:13.993Z,99221.09
2022-12-20T02:46:41.319Z,99225.56
2022-12-20T02:49:17.067Z,99222.31
2022-12-20T02:51:51.669Z,99221.63
2022-12-20T02:54:19.539Z,99216.66
2022-12-20T02:56:52.927Z,99216.50
2022-12-20T02:59:24.805Z,99226.91
2022-12-20T03:01:54.701Z,99224.59
2022-12-20T03:04:27.241Z,99238.91
2022-12-20T03:06:56.992Z,99245.81
2022-12-20T03:09:23.588Z,99249.31
2022-12-20T03:11:51.045Z,99244.72
2022-12-20T03:14:17.815Z,99232.03
2022-12-20T03:16:44.604Z,99224.19
2022-12-20T03:19:13.785Z,99220.66
2022-12-20T03:21:40.871Z,99229.97
2022-12-20T03:24:07.638Z,99257.28
2022-12-20T03:26:34.428Z,99267.69
2022-12-20T03:29:04.751Z,99269.97
2022-12-20T03:31:31.696Z,99254.56
2022-12-20T03:33:58.388Z,99251.47
2022-12-20T03:36:25.607Z,99246.34
2022-12-20T03:38:53.391Z,99251.19
2022-12-20T03:41:22.269Z,99255.41
2022-12-20T03:43:49.817Z,99238.75
2022-12-20T03:46:16.943Z,99241.84
2022-12-20T03:48:44.081Z,99232.25
2022-12-20T03:51:10.876Z,99238.06
2022-12-20T03:53:37.457Z,99234.97
2022-12-20T03:56:04.359Z,99216.44
2022-12-20T03:58:30.956Z,99211.16
2022-12-20T04:00:58.081Z,99218.84
2022-12-20T04:03:24.955Z,99208.47
2022-12-20T04:05:51.899Z,99224.38
2022-12-20T04:08:18.446Z,99216.56
2022-12-20T04:11:03.599Z,99208.47
2022-12-20T04:13:30.141Z,99197.66
2022-12-20T04:16:00.297Z,99187.22
2022-12-20T04:18:27.576Z,99183.88
2022-12-20T04:20:54.877Z,99179.41
2022-12-20T04:23:21.632Z,99185.19
2022-12-20T04:25:48.318Z,99184.66
2022-12-20T04:28:14.874Z,99175.34
2022-12-20T04:30:41.440Z,99182.16
2022-12-20T04:33:07.991Z,99178.75
2022-12-20T04:35:35.066Z,99176.34
2022-12-20T04:38:01.863Z,99175.09
2022-12-20T04:40:28.597Z,99177.00
2022-12-20T04:42:55.259Z,99183.88
2022-12-20T04:45:21.917Z,99178.09
2022-12-20T04:47:48.567Z,99183.75
2022-12-20T04:50:15.191Z,99183.47
2022-12-20T04:53:00.359Z,99185.75
2022-12-20T04:55:26.966Z,99172.97
2022-12-20T04:58:08.060Z,99162.13
2022-12-20T05:00:37.052Z,99167.09
2022-12-20T05:03:04.021Z,99166.00
2022-12-20T05:05:30.907Z,99161.44
2022-12-20T05:07:57.851Z,99163.84
2022-12-20T05:10:24.625Z,99163.03
2022-12-20T05:12:51.407Z,99171.69
2022-12-20T05:15:18.083Z,99169.78
2022-12-20T05:17:44.793Z,99147.91
2022-12-20T05:20:11.968Z,99136.44
2022-12-20T05:22:57.151Z,99139.69
2022-12-20T05:25:42.185Z,99142.66
2022-12-20T05:28:08.732Z,99139.69
2022-12-20T05:30:35.411Z,99152.94
2022-12-20T05:33:02.050Z,99170.78
2022-12-20T05:35:29.295Z,99163.22
2022-12-20T05:37:56.228Z,99169.44
2022-12-20T05:40:22.919Z,99159.72
2022-12-20T05:42:50.209Z,99149.75
2022-12-20T05:45:16.923Z,99131.50
2022-12-20T05:47:46.692Z,99134.06
2022-12-20T05:50:18.658Z,99138.00
2022-12-20T05:52:45.915Z,99144.22
2022-12-20T05:55:13.759Z,99153.69
2022-12-20T05:57:40.784Z,99160.13
2022-12-20T06:00:09.494Z,99157.56
2022-12-20T06:02:39.149Z,99147.69
2022-12-20T06:05:06.523Z,99148.47
2022-12-20T06:07:38.825Z,99151.19
2022-12-20T06:10:06.226Z,99144.56
2022-12-20T06:12:38.724Z,99136.84
2022-12-20T06:15:05.839Z,99143.44
2022-12-20T06:17:32.577Z,99146.94
2022-12-20T06:19:59.149Z,99149.91
2022-12-20T06:22:26.306Z,99144.78
2022-12-20T06:24:53.111Z,99139.13
2022-12-20T06:27:21.565Z,99153.16
2022-12-20T06:29:52.063Z,99142.31
2022-12-20T06:32:18.947Z,99143.09
2022-12-20T06:34:45.946Z,99151.66
2022-12-20T06:37:12.993Z,99155.16
2022-12-20T06:39:39.816Z,99144.06
2022-12-20T06:42:07.017Z,99137.72
2022-12-20T06:44:33.667Z,99147.44
2022-12-20T06:47:00.410Z,99155.16
2022-12-20T06:49:27.139Z,99159.34
2022-12-20T06:51:53.788Z,99152.44
2022-12-20T06:54:27.946Z,99146.84
2022-12-20T06:56:54.463Z,99161.72
2022-12-20T06:59:21.280Z,99169.56
2022-12-20T07:01:48.067Z,99173.47
2022-12-20T07:04:14.789Z,99179.03
2022-12-20T07:06:41.303Z,99183.38
2022-12-20T07:09:09.283Z,99180.34
2022-12-20T07:11:37.964Z,99156.03
2022-12-20T07:14:04.623Z,99139.13
2022-12-20T07:16:32.577Z,99159.53
2022-12-20T07:18:59.540Z,99163.22
2022-12-20T07:21:26.235Z,99140.47
2022-12-20T07:23:53.698Z,99138.69
2022-12-20T07:26:20.675Z,99131.78
2022-12-20T07:28:47.322Z,99120.72
2022-12-20T07:31:14.103Z,99142.88
2022-12-20T07:33:40.797Z,99127.63
2022-12-20T07:36:14.238Z,99134.59
2022-12-20T07:38:40.876Z,99129.72
2022-12-20T07:41:16.791Z,99124.31
2022-12-20T07:43:43.818Z,99115.50
2022-12-20T07:46:14.065Z,99119.69
2022-12-20T07:48:40.903Z,99131.81
2022-12-20T07:51:12.039Z,99131.00
2022-12-20T07:53:43.304Z,99128.81
2022-12-20T07:56:12.686Z,99135.03
2022-12-20T07:58:41.741Z,99126.66
2022-12-20T08:01:10.267Z,99121.78
2022-12-20T08:03:44.223Z,99121.84
2022-12-20T08:06:11.081Z,99113.75
2022-12-20T08:08:43.131Z,99105.16
2022-12-20T08:11:11.171Z,99100.38
2022-12-20T08:13:44.415Z,99101.34
2022-12-20T08:16:13.087Z,99106.69
2022-12-20T08:18:39.763Z,99108.19
2022-12-20T08:21:06.344Z,99113.69
2022-12-20T08:23:33.009Z,99101.19
2022-12-20T08:26:03.040Z,99092.25
2022-12-20T08:28:29.685Z,99085.03
2022-12-20T08:31:09.281Z,99073.81
2022-12-20T08:33:37.849Z,99088.66
2022-12-20T08:36:07.495Z,99089.69
2022-12-20T08:38:34.549Z,99092.31
2022-12-20T08:41:10.925Z,99081.25
2022-12-20T08:43:38.594Z,99087.56
2022-12-20T08:46:08.352Z,99099.03
2022-12-20T08:48:35.448Z,99094.84
2022-12-20T08:51:04.942Z,99093.13
2022-12-20T08:53:33.178Z,99078.34
2022-12-20T08:56:12.533Z,99081.53
2022-12-20T08:58:41.702Z,99064.03
2022-12-20T09:01:13.695Z,99071.44
2022-12-20T09:03:41.330Z,99069.22
2022-12-20T09:06:13.547Z,99071.31
2022-12-20T09:08:41.000Z,99076.47
2022-12-20T09:11:13.873Z,99078.59
2022-12-20T09:13:44.280Z,99071.88
2022-12-20T09:16:13.965Z,99086.19
2022-12-20T09:18:43.554Z,99087.66
2022-12-20T09:21:11.832Z,99084.25
2022-12-20T09:23:38.978Z,99085.56
2022-12-20T09:26:10.404Z,99089.44
2022-12-20T09:28:37.136Z,99082.22
2022-12-20T09:31:06.659Z,99091.41
2022-12-20T09:33:34.869Z,99086.09
2022-12-20T09:36:02.029Z,99084.31
2022-12-20T09:38:29.575Z,99075.66
2022-12-20T09:41:02.992Z,99087.09
2022-12-20T09:43:30.446Z,99085.16
2022-12-20T09:46:00.229Z,99073.91
2022-12-20T09:48:37.497Z,99068.91
2022-12-20T09:51:10.207Z,99060.03
2022-12-20T09:53:46.671Z,99054.88
2022-12-20T09:56:25.294Z,99042.00
2022-12-20T09:59:13.170Z,99027.03
2022-12-20T10:01:44.554Z,99026.88
2022-12-20T10:04:33.868Z,99028.19
2022-12-20T10:07:16.472Z,99025.94
2022-12-20T10:09:53.590Z,99013.34
2022-12-20T10:12:26.081Z,99014.63
2022-12-20T10:15:14.933Z,99022.06
2022-12-20T10:18:06.570Z,99025.63
2022-12-20T10:21:05.564Z,99034.47
2022-12-20T10:24:18.084Z,99028.19
2022-12-20T10:26:47.778Z,99015.78
2022-12-20T10:29:14.307Z,98989.50
2022-12-20T10:31:41.262Z,98988.84
2022-12-20T10:34:08.019Z,98983.00
2022-12-20T10:36:36.540Z,98983.66
2022-12-20T10:39:08.773Z,98989.78
2022-12-20T10:41:47.569Z,98988.78
2022-12-20T10:44:25.908Z,98967.16
2022-12-20T10:46:54.913Z,98973.94
2022-12-20T10:49:30.713Z,98980.81
2022-12-20T10:52:08.508Z,98976.94
2022-12-20T10:54:40.413Z,98976.59
2022-12-20T10:57:15.997Z,98991.91
2022-12-20T10:59:48.150Z,98989.81
2022-12-20T11:02:40.121Z,98973.97
2022-12-20T11:05:10.941Z,98974.91
2022-12-20T11:10:52.963Z,98964.41
2022-12-20T11:13:28.310Z,98951.97
2022-12-20T11:15:57.759Z,98953.56
2022-12-20T11:18:40.587Z,98959.06
2022-12-20T11:21:38.351Z,98943.78
2022-12-20T11:24:40.279Z,98935.22
2022-12-20T11:27:32.830Z,98935.22
2022-12-20T11:30:29.308Z,98939.25
2022-12-20T11:33:02.351Z,98948.09
2022-12-20T11:35:47.373Z,98925.00
2022-12-20T11:38:42.160Z,98927.84
2022-12-20T11:41:29.751Z,98937.56
2022-12-20T11:44:49.766Z,98929.47
2022-12-20T11:47:39.363Z,98926.41
2022-12-20T11:50:44.257Z,98910.59
2022-12-20T11:53:34.070Z,98902.53
2022-12-20T11:56:44.355Z,98889.91
2022-12-20T11:59:27.709Z,98892.72
2022-12-20T12:02:04.978Z,98894.88
2022-12-20T12:04:42.998Z,98885.84
2022-12-20T12:07:21.944Z,98887.03
2022-12-20T12:10:05.512Z,98888.19
2022-12-20T12:13:09.031Z,98882.41
2022-12-20T12:15:54.110Z,98883.88
2022-12-20T12:18:29.333Z,98880.00
2022-12-20T12:21:26.178Z,98880.00
2022-12-20T12:25:15.467Z,98870.00
2022-12-20T12:28:29.443Z,98850.44
2022-12-20T12:31:11.238Z,98854.56
2022-12-20T12:35:01.135Z,98861.03
2022-12-20T12:46:31.758Z,98850.47
2022-12-20T12:50:08.219Z,98852.28
2022-12-20T12:52:50.974Z,98848.50
2022-12-20T12:56:42.058Z,98835.06
2022-12-20T12:59:26.370Z,98841.53
2022-12-20T13:02:26.804Z,98844.59
2022-12-20T13:05:22.334Z,98833.91
2022-12-20T13:08:05.767Z,98841.94
2022-12-20T13:10:35.218Z,98820.28
2022-12-20T13:13:22.945Z,98819.00
2022-12-20T13:17:10.060Z,98807.06
2022-12-20T13:20:33.940Z,98807.69
2022-12-20T13:26:56.404Z,98787.72
2022-12-20T13:29:38.680Z,98799.38
2022-12-20T13:33:15.383Z,98789.13
2022-12-20T13:39:53.564Z,98801.19
2022-12-20T13:43:25.480Z,98804.75
2022-12-20T13:46:49.691Z,98807.41
2022-12-20T13:49:53.773Z,98815.97
2022-12-20T13:52:38.163Z,98819.34
2022-12-20T13:55:19.431Z,98824.50
2022-12-20T14:00:07.981Z,98825.78
2022-12-20T14:01:45.949Z,98829.44
2022-12-20T14:04:54.062Z,98824.28
2022-12-20T14:07:41.906Z,98828.53
2022-12-20T14:10:59.536Z,98841.78
2022-12-20T14:14:07.334Z,98837.47
2022-12-20T14:16:42.162Z,98822.69
2022-12-20T14:19:21.168Z,98827.84
2022-12-20T14:22:05.570Z,98798.19
2022-12-20T14:24:33.699Z,98782.50
2022-12-20T14:27:00.759Z,98794.16
2022-12-20T14:29:31.266Z,98791.75
2022-12-20T14:32:00.483Z,98786.13
2022-12-20T14:34:38.104Z,98785.69
2022-12-20T14:37:31.674Z,98775.50
2022-12-20T14:40:17.981Z,98776.31
2022-12-20T14:42:45.636Z,98774.41
2022-12-20T14:45:12.245Z,98754.41
2022-12-20T14:47:47.994Z,98752.97
2022-12-20T14:50:20.273Z,98762.94
2022-12-20T14:52:46.911Z,98748.59
2022-12-20T14:55:21.198Z,98743.16
2022-12-20T14:57:51.782Z,98743.19
2022-12-20T15:00:18.276Z,98742.13
2022-12-20T15:03:00.670Z,98740.22
2022-12-20T15:05:38.304Z,98742.22
2022-12-20T15:08:21.560Z,98748.97
2022-12-20T15:11:10.265Z,98764.00
2022-12-20T15:13:36.755Z,98758.03
2022-12-20T15:16:13.847Z,98761.91
2022-12-20T15:18:40.786Z,98752.75
2022-12-20T15:21:15.173Z,98752.13
2022-12-20T15:23:48.084Z,98741.50
2022-12-20T15:26:21.413Z,98736.66
2022-12-20T15:28:48.583Z,98729.75
2022-12-20T15:31:18.135Z,98747.16
2022-12-20T15:33:45.970Z,98751.06
2022-12-20T15:36:24.409Z,98752.22
2022-12-20T15:41:40.500Z,98758.28
2022-12-20T15:44:11.904Z,98745.91
2022-12-20T15:49:32.266Z,98750.78
2022-12-20T15:51:59.538Z,98743.03
2022-12-20T15:54:36.392Z,98734.16
2022-12-20T15:57:09.342Z,98735.75
2022-12-20T16:02:25.026Z,98743.81
2022-12-20T16:04:53.572Z,98747.06
2022-12-20T16:07:20.595Z,98736.88
2022-12-20T16:09:47.641Z,98746.56
2022-12-20T16:12:18.528Z,98741.78
2022-12-20T16:14:45.863Z,98745.78
2022-12-20T16:17:19.945Z,98734.84
2022-12-20T16:19:49.955Z,98741.78
2022-12-20T16:22:19.112Z,98739.19
2022-12-20T16:24:48.929Z,98741.63
2022-12-20T16:27:16.069Z,98738.25
2022-12-20T16:29:47.934Z,98733.56
2022-12-20T16:32:16.104Z,98723.72
2022-12-20T16:34:43.829Z,98727.44
2022-12-20T16:37:11.967Z,98719.41
2022-12-20T16:39:40.293Z,98715.88
2022-12-20T16:42:20.938Z,98708.47
2022-12-20T16:44:51.556Z,98675.25
2022-12-20T16:47:21.698Z,98642.75
2022-12-20T16:49:53.624Z,98661.13
2022-12-20T16:52:37.368Z,98698.84
2022-12-20T16:55:15.406Z,98701.44
2022-12-20T16:57:42.146Z,98692.28
2022-12-20T17:00:11.304Z,98687.16
2022-12-20T17:02:38.124Z,98685.56
2022-12-20T17:05:05.670Z,98677.53
2022-12-20T17:07:42.776Z,98665.31
2022-12-20T17:10:11.759Z,98678.53
2022-12-20T17:12:44.266Z,98668.25
2022-12-20T17:15:33.705Z,98677.75
2022-12-20T17:18:02.777Z,98692.88
2022-12-20T17:20:36.818Z,98687.25
2022-12-20T17:23:04.146Z,98686.47
2022-12-20T17:25:35.816Z,98691.94
2022-12-20T17:28:09.375Z,98691.47
2022-12-20T17:30:45.062Z,98694.84
2022-12-20T17:33:15.471Z,98702.69
2022-12-20T17:35:48.075Z,98709.81
2022-12-20T17:38:15.049Z,98704.00
2022-12-20T17:40:46.561Z,98712.06
2022-12-20T17:43:16.905Z,98732.81
2022-12-20T17:45:43.833Z,98724.13
2022-12-20T17:48:11.471Z,98707.06
2022-12-20T17:50:40.786Z,98708.50
2022-12-20T17:53:10.073Z,98710.44
2022-12-20T17:55:38.276Z,98713.19
2022-12-20T17:58:05.992Z,98718.50
2022-12-20T18:00:38.844Z,98724.47
2022-12-20T18:03:07.012Z,98726.72
2022-12-20T18:05:34.278Z,98742.31
2022-12-20T18:08:09.907Z,98744.56
2022-12-20T18:10:40.058Z,98754.06
2022-12-20T18:13:06.992Z,98744.22
2022-12-20T18:15:40.792Z,98739.41
2022-12-20T18:18:23.032Z,98746.66
2022-12-20T18:21:10.770Z,98751.94
2022-12-20T18:23:54.146Z,98743.41
2022-12-20T18:26:33.539Z,98729.03
2022-12-20T18:29:01.946Z,98710.19
2022-12-20T18:31:34.651Z,98709.22
2022-12-20T18:34:09.648Z,98691.66
2022-12-20T18:36:40.136Z,98701.97
2022-12-20T18:39:08.377Z,98703.56
2022-12-20T18:41:36.042Z,98698.41
2022-12-20T18:44:05.129Z,98698.09
2022-12-20T18:46:33.570Z,98702.81
2022-12-20T18:49:10.346Z,98700.38
2022-12-20T18:51:45.042Z,98685.75
2022-12-20T18:54:26.925Z,98691.84
2022-12-20T18:57:07.675Z,98691.53
2022-12-20T18:59:52.019Z,98674.66
2022-12-20T19:02:18.960Z,98656.28
2022-12-20T19:04:45.876Z,98654.69
2022-12-20T19:07:16.280Z,98649.88
2022-12-20T19:09:43.061Z,98652.94
2022-12-20T19:12:14.039Z,98649.25
2022-12-20T19:14:50.265Z,98643.47
2022-12-20T19:17:21.247Z,98646.22
2022-12-20T19:19:53.195Z,98641.06
2022-12-20T19:22:20.099Z,98638.97
2022-12-20T19:24:46.720Z,98634.00
2022-12-20T19:27:15.324Z,98631.44
2022-12-20T19:29:42.540Z,98634.50
2022-12-20T19:32:15.327Z,98621.28
2022-12-20T19:34:45.808Z,98624.16
2022-12-20T19:37:14.548Z,98624.81
2022-12-20T19:39:52.074Z,98622.72
2022-12-20T19:46:06.217Z,98612.25
2022-12-20T19:48:49.772Z,98623.84
2022-12-20T19:51:39.899Z,98617.59
2022-12-20T19:54:55.471Z,98616.28
2022-12-20T19:57:28.425Z,98622.56
2022-12-20T20:00:06.915Z,98621.75
2022-12-20T20:05:47.939Z,98626.06
2022-12-20T20:08:15.540Z,98634.00
2022-12-20T20:10:42.805Z,98635.59
2022-12-20T20:13:09.787Z,98619.34
2022-12-20T20:15:39.630Z,98623.34
2022-12-20T20:18:06.298Z,98630.13
2022-12-20T20:20:34.917Z,98622.56
2022-12-20T20:23:05.855Z,98624.94
2022-12-20T20:25:35.302Z,98616.28
2022-12-20T20:28:03.711Z,98612.72
2022-12-20T20:30:30.570Z,98609.81
2022-12-20T20:32:57.432Z,98614.00
2022-12-20T20:35:24.115Z,98612.03
2022-12-20T20:37:50.876Z,98618.47
2022-12-20T20:40:20.146Z,98628.28
2022-12-20T20:42:47.133Z,98628.25
2022-12-20T20:45:14.127Z,98622.00
2022-12-20T20:47:48.565Z,98614.75
2022-12-20T20:50:18.386Z,98627.13
2022-12-20T20:52:45.046Z,98629.69
2022-12-20T20:55:11.599Z,98628.09
2022-12-20T20:57:38.966Z,98627.66
2022-12-20T21:00:07.024Z,98630.22
2022-12-20T21:02:33.953Z,98621.38
2022-12-20T21:05:52.591Z,98636.47
2022-12-20T21:07:47.960Z,98620.03
2022-12-20T21:10:15.286Z,98613.63
2022-12-20T21:12:48.310Z,98610.22
2022-12-20T21:15:28.119Z,98616.81
2022-12-20T21:17:55.620Z,98617.00
2022-12-20T21:23:13.670Z,98609.44
2022-12-20T21:25:40.276Z,98605.22
2022-12-20T21:28:06.975Z,98603.09
2022-12-20T21:30:33.775Z,98606.34
2022-12-20T21:33:03.113Z,98608.25
2022-12-20T21:35:37.191Z,98607.28
2022-12-20T21:38:04.062Z,98616.63
2022-12-20T21:40:30.564Z,98615.84
2022-12-20T21:42:57.202Z,98607.41
2022-12-20T21:45:23.884Z,98611.28
2022-12-20T21:47:50.590Z,98616.44
2022-12-20T21:50:17.136Z,98612.09
2022-12-20T21:52:44.020Z,98623.97
2022-12-20T21:55:11.051Z,98624.97
2022-12-20T21:57:37.651Z,98621.56
2022-12-20T22:00:10.773Z,98621.25
2022-12-20T22:02:41.233Z,98622.03
2022-12-20T22:05:08.965Z,98613.19
2022-12-20T22:07:35.653Z,98624.44
2022-12-20T22:10:02.165Z,98626.22
2022-12-20T22:12:28.696Z,98627.69
2022-12-20T22:14:55.351Z,98625.13
2022-12-20T22:17:22.768Z,98608.56
2022-12-20T22:19:50.439Z,98600.72
2022-12-20T22:22:18.364Z,98610.38
2022-12-20T22:24:44.894Z,98622.31
2022-12-20T22:27:11.758Z,98628.59
2022-12-20T22:29:38.555Z,98646.28
2022-12-20T22:32:05.223Z,98647.63
2022-12-20T22:34:31.765Z,98646.81
2022-12-20T22:37:02.067Z,98651.47
2022-12-20T22:39:28.928Z,98651.16
2022-12-20T22:41:55.605Z,98646.69
2022-12-20T22:44:22.380Z,98658.28
2022-12-20T22:46:49.110Z,98651.50
2022-12-20T22:49:17.773Z,98658.88
2022-12-20T22:52:06.298Z,98652.94
2022-12-20T22:54:36.655Z,98651.03
2022-12-20T22:57:03.538Z,98632.88
2022-12-20T22:59:30.124Z,98626.41
2022-12-20T23:01:56.913Z,98629.47
2022-12-20T23:04:23.658Z,98632.28
2022-12-20T23:06:53.392Z,98619.56
2022-12-20T23:09:20.098Z,98613.59
2022-12-20T23:12:05.113Z,98616.81
2022-12-20T23:14:50.119Z,98610.22
2022-12-20T23:17:17.413Z,98618.09
2022-12-20T23:20:02.657Z,98607.97
2022-12-20T23:22:39.301Z,98620.50
2022-12-20T23:25:06.654Z,98639.81
2022-12-20T23:27:33.853Z,98640.31
2022-12-20T23:30:00.668Z,98630.47
2022-12-20T23:32:27.440Z,98617.59
2022-12-20T23:34:54.208Z,98623.41
2022-12-20T23:37:21.230Z,98611.50
2022-12-20T23:39:47.911Z,98620.97
2022-12-20T23:42:14.940Z,98624.69
2022-12-20T23:44:45.019Z,98632.28
2022-12-20T23:47:18.807Z,98636.94
2022-12-20T23:49:46.227Z,98630.66
2022-12-20T23:52:13.259Z,98631.16
2022-12-20T23:54:41.107Z,98608.63
2022-12-20T23:57:12.419Z,98611.22
2022-12-20T23:59:39.128Z,98606.22
